KSFB/SFB METAR and TAF weather

Enter ICAO airport designator
Station Type Date Time Source
KSFB METAR 2022/09/26 08:53 UTC NOAA

KSFB 260853Z AUTO 00000KT 10SM CLR 24/22 A2988 RMK AO2 SLP116 T02390217 55005


Station Type Date Time Source
KSFB Decoded METAR 2022/09/26 08:53 UTC NOAA

ORLANDO SANFORD AIRPORT, FL, United States (KSFB) 28-47N 081-15W
Sep 26, 2022 - 04:53 AM EDT / 2022.09.26 0853 UTC
Wind: Calm:0
Visibility: 10 mile(s):0
Sky conditions: clear
Temperature: 75.0 F (23.9 C)
Dew Point: 71.1 F (21.7 C)
Relative Humidity: 87%
Pressure (altimeter): 29.88 in. Hg (1011 hPa)
Pressure tendency: 0.01 inches (0.5 hPa) lower than three hours ago
ob: KSFB 260853Z AUTO 00000KT 10SM CLR 24/22 A2988 RMK AO2 SLP116 T02390217 55005
cycle: 9

Station Type Date Time Source
KSFB TAF 2022/09/26 06:22 UTC NOAA

TAF KSFB 260520Z 2606/2706 VRB03KT P6SM SCT040 SCT060
FM261400 06005KT P6SM SCT030
FM262000 08008KT P6SM VCTS SCT045CB
TEMPO 2622/2701 3SM TSRA BKN035CB
FM270300 12004KT P6SM SCT040 SCT250

Example: see airport list